Miemaru — JL6277 — position and weather

sailwx.info

Track history (hours):
 
Tides and Currents Weather Stations Pressure Air Temp Water Temp Dewpoint Dewpoint Depression Visibility Wind Speed Wind Dir Waves Ship Positions

Miemaru

Last reported at 2018-Jun-22 20:59 UTC. Time now 2018-Jun-24 22:38 UTC.
Position N 34°21' E 134°23'.

Length 75 m; draft 3.7 m.

Type: Cargo ship. MMSI: 431500599.

Date/timePositionNaut miles runAvg speedWind from/ knotsBaromVisibWave heightAir tempDewpointWater temp
2018-Jun-22 20:59N 34°21' E 134°23'711.8
2018-Jun-22 20:22N 34°18' E 134°31'811.8
2018-Jun-22 19:43N 34°14' E 134°39'712.0
2018-Jun-22 19:06N 34°08' E 134°45'211.7
2018-Jun-22 18:58N 34°07' E 134°46'611.8
2018-Jun-22 18:26N 34°02' E 134°51'512.0
2018-Jun-22 18:01N 33°58' E 134°55'611.6
2018-Jun-22 17:30N 33°54' E 134°59'611.4
2018-Jun-22 17:00N 33°49' E 135°04'611.4
2018-Jun-22 16:27N 33°45' E 135°09'239 9.4
2018-Jun-21 15:00N 35°06' E 139°41'611.0
2018-Jun-21 14:29N 35°11' E 139°45'510.3
2018-Jun-21 13:59N 35°16' E 139°45'611.6
2018-Jun-21 13:30N 35°21' E 139°42'510.8
2018-Jun-21 13:00N 35°26' E 139°45'611.1
2018-Jun-21 12:30N 35°30' E 139°49'510.2
2018-Jun-21 11:59N 35°35' E 139°52'0 0.2
2018-Jun-21 11:23N 35°35' E 139°52'0 0.0
2018-Jun-21 10:59N 35°35' E 139°52'0 0.0
2018-Jun-21 10:29N 35°35' E 139°52'0 0.0
2018-Jun-21 09:59N 35°35' E 139°52'0 0.0
2018-Jun-21 09:29N 35°35' E 139°52'0 0.4
2018-Jun-21 08:58N 35°35' E 139°52'  
2018-Jun-18 06:52N 35°37' E 139°48'3 6.5
2018-Jun-18 06:29N 35°36' E 139°50'3 0.8
2018-Jun-18 03:21N 35°34' E 139°53'0 0.0
2018-Jun-18 02:03N 35°34' E 139°53'0 0.0
2018-Jun-18 00:30N 35°34' E 139°53'0 0.0
2018-Jun-17 23:45N 35°34' E 139°53'0 0.0
2018-Jun-17 21:33N 35°34' E 139°53'0 5.0
2018-Jun-17 21:30N 35°34' E 139°53'510.7
2018-Jun-17 21:01N 35°29' E 139°52'611.0
2018-Jun-17 20:31N 35°25' E 139°47'510.9
2018-Jun-17 20:01N 35°20' E 139°44'510.6
2018-Jun-17 19:31N 35°15' E 139°47'610.8
2018-Jun-17 18:56N 35°09' E 139°45'246 9.5
2018-Jun-16 17:04N 33°50' E 135°03'111.7
2018-Jun-16 17:00N 33°50' E 135°03'611.6
2018-Jun-16 16:29N 33°55' E 134°58'611.4
2018-Jun-16 16:00N 33°59' E 134°54'511.2
2018-Jun-16 15:31N 34°03' E 134°49'611.3
2018-Jun-16 14:58N 34°08' E 134°45'610.9
2018-Jun-16 14:26N 34°12' E 134°40'710.1
2018-Jun-16 13:47N 34°17' E 134°34'310.2
2018-Jun-16 13:28N 34°18' E 134°31'510.2
2018-Jun-16 13:01N 34°20' E 134°26'4 8.0
2018-Jun-16 12:30N 34°22' E 134°21'5 9.2
2018-Jun-16 11:57N 34°23' E 134°15'7 0.3
2018-Jun-15 13:46N 34°21' E 134°24'612.4
2018-Jun-15 13:19N 34°18' E 134°30'912.1
2018-Jun-15 12:34N 34°14' E 134°39'112.3
2018-Jun-15 12:30N 34°13' E 134°40'812.1
2018-Jun-15 11:49N 34°06' E 134°46'411.9
2018-Jun-15 11:30N 34°04' E 134°49'611.8
2018-Jun-15 10:58N 33°59' E 134°54'611.9
2018-Jun-15 10:29N 33°55' E 134°59'611.8
2018-Jun-15 09:58N 33°50' E 135°04'24610.0
2018-Jun-14 09:28N 35°12' E 139°45'510.8
2018-Jun-14 09:00N 35°17' E 139°45'510.9
2018-Jun-14 08:31N 35°21' E 139°42'510.9
2018-Jun-14 08:00N 35°26' E 139°45'611.4
2018-Jun-14 07:30N 35°31' E 139°49'510.2
2018-Jun-14 06:59N 35°36' E 139°50'2 0.3
2018-Jun-13 22:50N 35°38' E 139°48'2 6.1
2018-Jun-13 22:26N 35°36' E 139°50'3 6.4
2018-Jun-13 22:00N 35°35' E 139°53'0 0.0
2018-Jun-13 21:29N 35°35' E 139°53'0 0.1
2018-Jun-13 20:59N 35°35' E 139°53'0 0.0
2018-Jun-13 20:29N 35°35' E 139°53'0 0.0
2018-Jun-13 19:17N 35°35' E 139°53'0 0.0
2018-Jun-13 18:59N 35°35' E 139°53'0 0.0
2018-Jun-13 17:05N 35°35' E 139°53'0 0.0
2018-Jun-13 17:00N 35°35' E 139°53'3 6.4
2018-Jun-13 16:30N 35°32' E 139°53'510.7
2018-Jun-13 16:00N 35°27' E 139°50'611.3
2018-Jun-13 15:30N 35°22' E 139°46'510.4
2018-Jun-13 15:00N 35°17' E 139°45'510.3
2018-Jun-13 14:30N 35°12' E 139°47'  
Track history (hours):
 
Tides and Currents Weather Stations Pressure Air Temp Water Temp Dewpoint Dewpoint Depression Visibility Wind Speed Wind Dir Waves Ship Positions

Miemaru

Last reported at 2018-Jun-22 20:59 UTC. Time now 2018-Jun-24 22:38 UTC.
Position N 34°21' E 134°23'.

Length 75 m; draft 3.7 m.

Type: Cargo ship. MMSI: 431500599.

Date/timePositionNaut miles runAvg speedWind from/ knotsBaromVisibWave heightAir tempDewpointWater temp
2018-Jun-22 20:59N 34°21' E 134°23'711.8
2018-Jun-22 20:22N 34°18' E 134°31'811.8
2018-Jun-22 19:43N 34°14' E 134°39'712.0
2018-Jun-22 19:06N 34°08' E 134°45'211.7
2018-Jun-22 18:58N 34°07' E 134°46'611.8
2018-Jun-22 18:26N 34°02' E 134°51'512.0
2018-Jun-22 18:01N 33°58' E 134°55'611.6
2018-Jun-22 17:30N 33°54' E 134°59'611.4
2018-Jun-22 17:00N 33°49' E 135°04'611.4
2018-Jun-22 16:27N 33°45' E 135°09'239 9.4
2018-Jun-21 15:00N 35°06' E 139°41'611.0
2018-Jun-21 14:29N 35°11' E 139°45'510.3
2018-Jun-21 13:59N 35°16' E 139°45'611.6
2018-Jun-21 13:30N 35°21' E 139°42'510.8
2018-Jun-21 13:00N 35°26' E 139°45'611.1
2018-Jun-21 12:30N 35°30' E 139°49'510.2
2018-Jun-21 11:59N 35°35' E 139°52'0 0.2
2018-Jun-21 11:23N 35°35' E 139°52'0 0.0
2018-Jun-21 10:59N 35°35' E 139°52'0 0.0
2018-Jun-21 10:29N 35°35' E 139°52'0 0.0
2018-Jun-21 09:59N 35°35' E 139°52'0 0.0
2018-Jun-21 09:29N 35°35' E 139°52'0 0.4
2018-Jun-21 08:58N 35°35' E 139°52'  
2018-Jun-18 06:52N 35°37' E 139°48'3 6.5
2018-Jun-18 06:29N 35°36' E 139°50'3 0.8
2018-Jun-18 03:21N 35°34' E 139°53'0 0.0
2018-Jun-18 02:03N 35°34' E 139°53'0 0.0
2018-Jun-18 00:30N 35°34' E 139°53'0 0.0
2018-Jun-17 23:45N 35°34' E 139°53'0 0.0
2018-Jun-17 21:33N 35°34' E 139°53'0 5.0
2018-Jun-17 21:30N 35°34' E 139°53'510.7
2018-Jun-17 21:01N 35°29' E 139°52'611.0
2018-Jun-17 20:31N 35°25' E 139°47'510.9
2018-Jun-17 20:01N 35°20' E 139°44'510.6
2018-Jun-17 19:31N 35°15' E 139°47'610.8
2018-Jun-17 18:56N 35°09' E 139°45'246 9.5
2018-Jun-16 17:04N 33°50' E 135°03'111.7
2018-Jun-16 17:00N 33°50' E 135°03'611.6
2018-Jun-16 16:29N 33°55' E 134°58'611.4
2018-Jun-16 16:00N 33°59' E 134°54'511.2
2018-Jun-16 15:31N 34°03' E 134°49'611.3
2018-Jun-16 14:58N 34°08' E 134°45'610.9
2018-Jun-16 14:26N 34°12' E 134°40'710.1
2018-Jun-16 13:47N 34°17' E 134°34'310.2
2018-Jun-16 13:28N 34°18' E 134°31'510.2
2018-Jun-16 13:01N 34°20' E 134°26'4 8.0
2018-Jun-16 12:30N 34°22' E 134°21'5 9.2
2018-Jun-16 11:57N 34°23' E 134°15'7 0.3
2018-Jun-15 13:46N 34°21' E 134°24'612.4
2018-Jun-15 13:19N 34°18' E 134°30'912.1
2018-Jun-15 12:34N 34°14' E 134°39'112.3
2018-Jun-15 12:30N 34°13' E 134°40'812.1
2018-Jun-15 11:49N 34°06' E 134°46'411.9
2018-Jun-15 11:30N 34°04' E 134°49'611.8
2018-Jun-15 10:58N 33°59' E 134°54'611.9
2018-Jun-15 10:29N 33°55' E 134°59'611.8
2018-Jun-15 09:58N 33°50' E 135°04'24610.0
2018-Jun-14 09:28N 35°12' E 139°45'510.8
2018-Jun-14 09:00N 35°17' E 139°45'510.9
2018-Jun-14 08:31N 35°21' E 139°42'510.9
2018-Jun-14 08:00N 35°26' E 139°45'611.4
2018-Jun-14 07:30N 35°31' E 139°49'510.2
2018-Jun-14 06:59N 35°36' E 139°50'2 0.3
2018-Jun-13 22:50N 35°38' E 139°48'2 6.1
2018-Jun-13 22:26N 35°36' E 139°50'3 6.4
2018-Jun-13 22:00N 35°35' E 139°53'0 0.0
2018-Jun-13 21:29N 35°35' E 139°53'0 0.1
2018-Jun-13 20:59N 35°35' E 139°53'0 0.0
2018-Jun-13 20:29N 35°35' E 139°53'0 0.0
2018-Jun-13 19:17N 35°35' E 139°53'0 0.0
2018-Jun-13 18:59N 35°35' E 139°53'0 0.0
2018-Jun-13 17:05N 35°35' E 139°53'0 0.0
2018-Jun-13 17:00N 35°35' E 139°53'3 6.4
2018-Jun-13 16:30N 35°32' E 139°53'510.7
2018-Jun-13 16:00N 35°27' E 139°50'611.3
2018-Jun-13 15:30N 35°22' E 139°46'510.4
2018-Jun-13 15:00N 35°17' E 139°45'510.3
2018-Jun-13 14:30N 35°12' E 139°47'  

Dump ship's entire track history